Time;durP1;ratioP1;P1;durP2;ratioP2;P2;SDS_P1;SDS_P2;PMS_P1;PMS_P2;Temp;Humidity;BMP_temperature;BMP_pressure;BME280_temperature;BME280_humidity;BME280_pressure;Samples;Min_cycle;Max_cycle;Signal;HPM_P1;HPM_P2
2021/05/22 00:02:00;;;;;;;;;3.00;3.00;;;;;16.95;59.79;101094.22;5143232;27;8832;-79
2021/05/22 00:04:56;;;;;;;;;2.25;2.25;;;;;16.86;59.78;101093.56;5153813;27;8833;-81
2021/05/22 00:07:51;;;;;;;;;2.00;2.00;;;;;17.15;61.43;101089.44;5155461;27;8821;-82
2021/05/22 00:10:47;;;;;;;;;1.00;1.00;;;;;17.19;59.27;101086.75;5155581;27;8833;-81
2021/05/22 00:13:43;;;;;;;;;3.25;3.25;;;;;16.91;60.17;101073.75;5140922;27;9578;-79
2021/05/22 00:16:38;;;;;;;;;3.25;3.25;;;;;16.81;59.78;101068.75;5136918;27;8815;-80
2021/05/22 00:19:34;;;;;;;;;5.00;5.00;;;;;16.98;59.28;101047.16;5133818;27;8853;-80
2021/05/22 00:22:29;;;;;;;;;7.00;7.00;;;;;16.71;60.48;101024.59;5135450;27;8919;-78
2021/05/22 00:25:25;;;;;;;;;6.00;5.00;;;;;16.57;61.21;101010.31;5134884;27;8819;-79
2021/05/22 00:28:21;;;;;;;;;4.75;4.75;;;;;16.61;60.43;101005.59;5120018;27;8943;-79
2021/05/22 00:31:16;;;;;;;;;3.50;3.50;;;;;16.53;60.56;101014.97;5126544;27;8934;-79
2021/05/22 00:34:12;;;;;;;;;3.50;3.50;;;;;16.56;61.25;101025.41;5124581;27;8831;-78
2021/05/22 00:37:07;;;;;;;;;3.00;3.00;;;;;16.63;61.69;101025.56;5134434;27;8855;-79
2021/05/22 00:40:05;;;;;;;;;1.25;1.25;;;;;16.52;60.84;101016.97;5135565;27;8900;-81
2021/05/22 00:43:02;;;;;;;;;1.25;1.25;;;;;16.55;61.13;101019.03;5134322;27;8816;-79
2021/05/22 00:45:58;;;;;;;;;1.00;1.00;;;;;16.53;60.93;101006.59;5113642;28;8815;-81
2021/05/22 00:48:54;;;;;;;;;2.00;2.00;;;;;16.42;61.19;101006.38;5113940;27;8853;-81
2021/05/22 00:51:49;;;;;;;;;2.50;2.50;;;;;16.56;60.89;101025.41;5113315;28;8854;-81
2021/05/22 00:54:45;;;;;;;;;2.50;2.50;;;;;16.60;60.76;101059.81;5113386;28;9568;-81
2021/05/22 00:57:42;;;;;;;;;3.00;3.00;;;;;16.56;60.39;101087.69;5113530;28;9616;-80
2021/05/22 01:00:44;;;;;;;;;4.00;4.00;;;;;16.57;61.43;101094.88;5113820;28;8835;-80
2021/05/22 01:03:48;;;;;;;;;4.00;4.00;;;;;16.74;60.51;101084.53;5113593;28;9746;-81
2021/05/22 01:06:43;;;;;;;;;4.25;4.25;;;;;16.41;60.60;101074.53;5111308;28;8884;-80
2021/05/22 01:09:41;;;;;;;;;2.25;2.25;;;;;16.45;60.85;101080.19;5114053;28;8941;-81
2021/05/22 01:12:41;;;;;;;;;1.25;1.25;;;;;16.36;60.91;101092.34;5113656;28;8831;-80
2021/05/22 01:15:37;;;;;;;;;2.00;2.00;;;;;16.43;61.24;101093.72;5130821;27;8828;-80
2021/05/22 01:18:34;;;;;;;;;1.00;1.00;;;;;16.55;60.53;101088.81;5136309;27;8821;-82
2021/05/22 01:21:29;;;;;;;;;2.50;2.50;;;;;16.32;61.13;101094.22;5132963;27;9609;-80
2021/05/22 01:24:27;;;;;;;;;2.00;2.00;;;;;16.38;61.33;101112.34;5134604;27;8862;-80
2021/05/22 01:27:23;;;;;;;;;2.00;2.00;;;;;16.39;60.76;101079.66;5133483;27;8819;-80
2021/05/22 01:30:19;;;;;;;;;1.00;1.00;;;;;16.40;61.08;101037.41;5137272;27;8801;-80
2021/05/22 01:33:17;;;;;;;;;2.25;2.25;;;;;16.42;61.61;101039.06;5153125;27;8809;-80
2021/05/22 01:36:13;;;;;;;;;1.50;1.50;;;;;16.24;61.67;101025.47;5132742;27;8912;-80
2021/05/22 01:39:08;;;;;;;;;2.00;2.00;;;;;16.24;61.76;100980.81;5133022;27;8891;-82
2021/05/22 01:42:06;;;;;;;;;0.00;0.00;;;;;16.20;61.95;100952.03;5129752;27;8922;-79
2021/05/22 01:45:10;;;;;;;;;1.00;1.00;;;;;16.00;62.01;100970.66;5137149;27;8811;-79
2021/05/22 01:48:08;;;;;;;;;2.00;2.00;;;;;16.23;61.77;101001.50;5123724;27;8819;-78
2021/05/22 01:51:11;;;;;;;;;2.00;2.00;;;;;16.40;62.13;100989.97;5125494;27;8838;-81
2021/05/22 01:54:10;;;;;;;;;0.50;0.50;;;;;16.42;61.15;100998.00;5124547;27;8843;-81
2021/05/22 01:57:07;;;;;;;;;0.25;0.25;;;;;16.55;61.21;101029.38;5138332;27;8846;-82
2021/05/22 02:00:07;;;;;;;;;1.50;1.50;;;;;16.34;60.94;101052.84;5137574;27;8989;-80
2021/05/22 02:03:15;;;;;;;;;1.00;1.00;;;;;16.57;61.32;101077.31;5139594;27;8831;-82
2021/05/22 02:06:23;;;;;;;;;2.00;2.00;;;;;16.64;60.97;101097.03;5125557;27;8835;-80
2021/05/22 02:09:20;;;;;;;;;4.00;4.00;;;;;16.40;61.02;101096.03;5138198;27;8823;-81
2021/05/22 02:12:17;;;;;;;;;4.00;3.25;;;;;16.52;61.29;101095.13;5123153;27;8819;-81
2021/05/22 02:15:15;;;;;;;;;1.25;1.25;;;;;16.36;60.98;101106.31;5154440;27;8956;-81
2021/05/22 02:18:13;;;;;;;;;1.50;1.50;;;;;16.46;61.00;101098.56;5145399;27;8841;-81
2021/05/22 02:21:09;;;;;;;;;2.00;2.00;;;;;16.43;61.97;101065.78;5158906;27;9684;-79
2021/05/22 02:24:06;;;;;;;;;2.25;2.25;;;;;16.57;63.28;101050.19;5143609;27;8825;-79
2021/05/22 02:27:03;;;;;;;;;3.00;3.00;;;;;16.54;60.89;101056.50;5142955;27;8924;-80
2021/05/22 02:30:00;;;;;;;;;4.00;4.00;;;;;16.56;62.22;101050.53;5158856;27;8848;-81
2021/05/22 02:32:57;;;;;;;;;10.33;10.33;;;;;16.43;60.82;101088.13;5159897;27;8809;-80
2021/05/22 02:35:55;;;;;;;;;8.33;8.33;;;;;16.40;61.37;101134.31;5152177;27;8921;-80
2021/05/22 02:38:52;;;;;;;;;7.50;7.25;;;;;16.57;60.75;101167.47;5143156;27;9013;-83
2021/05/22 02:41:50;;;;;;;;;4.25;4.25;;;;;16.64;61.11;101166.84;5152180;27;8835;-83
2021/05/22 02:44:49;;;;;;;;;5.75;5.75;;;;;16.60;61.00;101151.97;5142180;27;8807;-84
2021/05/22 02:47:47;;;;;;;;;5.50;5.50;;;;;16.41;61.52;101141.53;5124001;27;8877;-80
2021/05/22 02:50:46;;;;;;;;;7.25;7.25;;;;;16.45;61.50;101158.34;5124467;27;8899;-83
2021/05/22 02:53:45;;;;;;;;;7.00;7.00;;;;;16.65;60.88;101185.22;5134705;27;8835;-83
2021/05/22 02:56:43;;;;;;;;;5.50;5.50;;;;;16.73;60.48;101208.59;5129403;27;8932;-81
2021/05/22 02:59:40;;;;;;;;;7.33;6.33;;;;;16.58;60.56;101233.31;5136729;27;9023;-81
2021/05/22 03:02:42;;;;;;;;;7.25;7.25;;;;;16.62;60.42;101245.38;5138117;27;8835;-82
2021/05/22 03:05:40;;;;;;;;;7.50;7.50;;;;;16.65;60.73;101260.63;5148115;27;8825;-83
2021/05/22 03:08:46;;;;;;;;;6.50;6.50;;;;;16.72;60.68;101266.44;5140495;27;8809;-83
2021/05/22 03:11:42;;;;;;;;;7.00;7.00;;;;;16.63;60.45;101247.00;5132763;27;8819;-84
2021/05/22 03:14:37;;;;;;;;;7.00;7.00;;;;;16.81;60.23;101239.13;5138760;27;8823;-83
2021/05/22 03:17:33;;;;;;;;;6.75;6.75;;;;;16.83;60.14;101230.38;5150348;27;8927;-82
2021/05/22 03:20:29;;;;;;;;;9.25;9.25;;;;;17.00;60.21;101216.03;5142214;27;8828;-84
2021/05/22 03:23:25;;;;;;;;;6.25;6.25;;;;;16.90;59.86;101216.59;5146120;27;8848;-84
2021/05/22 03:26:20;;;;;;;;;3.75;3.75;;;;;16.74;59.89;101232.53;5133643;27;8821;-81
2021/05/22 03:29:17;;;;;;;;;9.00;8.25;;;;;16.85;60.35;101244.78;5136348;27;8837;-81
2021/05/22 03:32:13;;;;;;;;;4.00;4.00;;;;;16.82;59.94;101245.53;5144851;27;8850;-81
2021/05/22 03:35:09;;;;;;;;;4.25;3.75;;;;;17.09;60.21;101241.00;5147518;27;8815;-82
2021/05/22 03:38:05;;;;;;;;;5.75;5.00;;;;;17.14;59.51;101233.16;5131172;27;8894;-80
2021/05/22 03:41:01;;;;;;;;;4.50;4.50;;;;;17.22;59.44;101232.16;5129375;27;8863;-83
2021/05/22 03:43:57;;;;;;;;;6.50;6.50;;;;;17.50;59.01;101239.59;5128282;27;8815;-80
2021/05/22 03:46:53;;;;;;;;;4.75;4.75;;;;;17.61;59.16;101242.63;5133095;27;8835;-81
2021/05/22 03:49:48;;;;;;;;;3.25;3.25;;;;;17.72;57.85;101249.31;5145514;27;9405;-82
2021/05/22 03:52:44;;;;;;;;;2.25;2.25;;;;;17.49;58.68;101263.94;5142895;27;9579;-81
2021/05/22 03:55:41;;;;;;;;;3.25;3.25;;;;;17.45;59.00;101268.63;5144944;27;8867;-80
2021/05/22 03:58:36;;;;;;;;;1.25;1.25;;;;;17.37;58.28;101271.63;5127955;27;8817;-82
2021/05/22 04:01:32;;;;;;;;;2.50;2.50;;;;;17.23;59.15;101269.28;5130754;27;8856;-80
2021/05/22 04:04:30;;;;;;;;;3.50;3.50;;;;;17.14;58.31;101260.28;5143718;27;8911;-78
2021/05/22 04:07:27;;;;;;;;;1.00;1.00;;;;;17.10;58.42;101262.16;5135424;27;8841;-78
2021/05/22 04:10:23;;;;;;;;;1.00;1.00;;;;;17.34;58.68;101275.16;5134709;27;8833;-79
2021/05/22 04:13:19;;;;;;;;;3.50;3.50;;;;;17.34;58.38;101281.56;5134845;27;8895;-84
2021/05/22 04:16:15;;;;;;;;;2.00;2.00;;;;;17.46;58.18;101283.44;5121279;27;8905;-82
2021/05/22 04:19:11;;;;;;;;;2.25;2.25;;;;;17.50;58.18;101278.75;5136105;27;8919;-77
2021/05/22 04:22:08;;;;;;;;;6.00;6.00;;;;;17.67;59.47;101272.75;5133772;27;8851;-79
2021/05/22 04:25:04;;;;;;;;;11.50;11.50;;;;;17.81;59.08;101279.88;5119825;27;8811;-77
2021/05/22 04:28:00;;;;;;;;;23.00;22.75;;;;;18.23;62.68;101272.38;5133840;27;8965;-78
2021/05/22 04:30:56;;;;;;;;;5.50;5.50;;;;;18.44;58.21;101262.78;5103618;28;8830;-78
2021/05/22 04:33:51;;;;;;;;;58.50;47.50;;;;;18.38;58.53;101262.25;5093328;28;8821;-77
2021/05/22 04:36:47;;;;;;;;;33.33;30.33;;;;;18.79;58.66;101255.06;5092998;28;9435;-76
2021/05/22 04:39:42;;;;;;;;;7.75;7.75;;;;;18.70;57.22;101267.69;5098924;28;8931;-76
2021/05/22 04:42:38;;;;;;;;;29.00;28.33;;;;;18.92;60.26;101282.91;5098900;28;8834;-77
2021/05/22 04:45:34;;;;;;;;;23.50;23.50;;;;;18.75;56.11;101275.78;5100974;28;9297;-77
2021/05/22 04:48:31;;;;;;;;;4.25;4.25;;;;;18.86;54.13;101283.22;5104577;28;8807;-78
2021/05/22 04:51:28;;;;;;;;;8.50;7.75;;;;;18.59;55.20;101303.88;5105089;28;8827;-76
2021/05/22 04:54:24;;;;;;;;;10.75;10.75;;;;;18.30;55.43;101296.91;5113357;28;8822;-76
2021/05/22 04:57:21;;;;;;;;;16.50;16.50;;;;;18.67;54.47;101302.88;5101092;28;8859;-78
2021/05/22 05:00:18;;;;;;;;;3.00;3.00;;;;;18.92;53.33;101299.72;5079220;28;8905;-75
2021/05/22 05:03:14;;;;;;;;;10.25;10.25;;;;;19.34;55.68;101308.88;5104791;28;8827;-76
2021/05/22 05:06:23;;;;;;;;;6.75;6.50;;;;;19.33;52.78;101326.88;5094479;28;8844;-78
2021/05/22 05:09:20;;;;;;;;;1.00;1.00;;;;;18.96;51.97;101331.44;5092575;28;8952;-78
2021/05/22 05:12:16;;;;;;;;;10.50;9.00;;;;;19.36;57.13;101328.13;5096630;28;8845;-76
2021/05/22 05:15:12;;;;;;;;;1.75;1.75;;;;;19.08;52.08;101320.03;5106764;28;8961;-74
2021/05/22 05:18:07;;;;;;;;;7.00;6.00;;;;;19.11;52.88;101328.50;5112646;28;8905;-75
2021/05/22 05:21:03;;;;;;;;;5.25;5.25;;;;;19.10;53.60;101324.09;5113744;28;8866;-76
2021/05/22 05:23:59;;;;;;;;;4.50;4.00;;;;;19.14;52.46;101316.53;5113784;28;8839;-76
2021/05/22 05:26:54;;;;;;;;;2.00;2.00;;;;;19.01;51.90;101317.09;5092176;28;8830;-76
2021/05/22 05:29:50;;;;;;;;;3.75;3.75;;;;;19.45;51.63;101325.88;5092766;28;8864;-75
2021/05/22 05:32:45;;;;;;;;;2.00;2.00;;;;;19.19;51.44;101323.03;5106258;27;8908;-78
2021/05/22 05:35:41;;;;;;;;;4.00;4.00;;;;;19.19;52.29;101323.03;5111951;28;9633;-78
2021/05/22 05:38:37;;;;;;;;;3.00;3.00;;;;;19.32;51.94;101336.50;5116274;28;8847;-77
2021/05/22 05:41:33;;;;;;;;;4.00;4.00;;;;;19.40;51.27;101340.22;5118734;27;8803;-75
2021/05/22 05:44:29;;;;;;;;;2.00;2.00;;;;;19.32;50.78;101342.09;5126534;27;8830;-76
2021/05/22 05:47:25;;;;;;;;;3.00;3.00;;;;;19.39;53.44;101347.00;5112099;27;8904;-75
2021/05/22 05:50:23;;;;;;;;;2.00;2.00;;;;;19.63;51.59;101349.44;5098961;27;9598;-76
2021/05/22 05:53:19;;;;;;;;;2.00;2.00;;;;;19.39;50.96;101341.38;5111537;27;8960;-76
2021/05/22 05:56:14;;;;;;;;;3.00;3.00;;;;;19.54;53.53;101348.03;5126897;28;8860;-77
2021/05/22 05:59:10;;;;;;;;;2.75;2.75;;;;;19.49;52.12;101337.97;5111562;28;8960;-79
2021/05/22 06:02:06;;;;;;;;;3.00;3.00;;;;;19.52;52.15;101342.81;5131170;27;9559;-80
2021/05/22 06:05:02;;;;;;;;;4.00;4.00;;;;;19.58;53.73;101344.16;5132656;27;8807;-80
2021/05/22 06:07:58;;;;;;;;;5.25;4.00;;;;;19.70;53.73;101337.50;5118893;28;8844;-79
2021/05/22 06:10:54;;;;;;;;;2.00;2.00;;;;;19.68;52.39;101328.66;5112419;28;8839;-78
2021/05/22 06:13:50;;;;;;;;;5.25;4.25;;;;;20.15;50.98;101328.13;5111982;28;8949;-79
2021/05/22 06:16:45;;;;;;;;;2.00;2.00;;;;;20.18;50.89;101321.75;5122612;27;8837;-79
2021/05/22 06:19:41;;;;;;;;;4.00;4.00;;;;;20.53;51.11;101326.22;5132982;27;8827;-79
2021/05/22 06:22:37;;;;;;;;;2.50;2.50;;;;;20.10;49.09;101331.28;5119073;27;8952;-78
2021/05/22 06:25:33;;;;;;;;;3.75;3.75;;;;;20.60;51.21;101322.69;5115971;27;8865;-80
2021/05/22 06:28:29;;;;;;;;;5.00;5.00;;;;;20.07;49.40;101318.00;5135867;27;8811;-78
2021/05/22 06:31:24;;;;;;;;;6.75;6.00;;;;;20.09;51.43;101320.41;5122715;27;8831;-78
2021/05/22 06:34:20;;;;;;;;;2.75;2.75;;;;;19.78;49.90;101308.34;5140291;27;8863;-79
2021/05/22 06:37:16;;;;;;;;;3.50;3.50;;;;;19.84;50.86;101306.03;5102770;28;8833;-79
2021/05/22 06:40:12;;;;;;;;;5.00;5.00;;;;;19.71;50.63;101309.09;5116525;28;8880;-76
2021/05/22 06:43:09;;;;;;;;;4.50;4.50;;;;;19.63;51.31;101304.56;5102297;28;8917;-79
2021/05/22 06:46:46;;;;;;;;;5.75;5.75;;;;;20.07;53.16;101305.94;5115108;28;8863;-80
2021/05/22 06:49:23;;;;;;;;;3.75;3.75;;;;;20.34;52.80;101299.09;5115804;28;8845;-80
2021/05/22 06:52:18;;;;;;;;;4.75;4.75;;;;;20.40;50.77;101291.94;5115588;28;9655;-81
2021/05/22 06:55:14;;;;;;;;;4.75;4.25;;;;;20.48;49.70;101298.47;5114462;28;8860;-81
2021/05/22 06:58:10;;;;;;;;;5.00;5.00;;;;;20.74;50.98;101297.56;5114914;28;8825;-79
2021/05/22 07:01:06;;;;;;;;;4.75;4.75;;;;;20.98;49.71;101305.41;5115135;28;8846;-78
2021/05/22 07:04:02;;;;;;;;;3.75;3.75;;;;;21.19;48.91;101295.56;5115975;28;9673;-81
2021/05/22 07:06:57;;;;;;;;;2.25;2.25;;;;;21.08;47.47;101301.09;5117699;27;8824;-78
2021/05/22 07:09:53;;;;;;;;;4.50;3.50;;;;;20.96;47.96;101302.19;5114665;28;8821;-81
2021/05/22 07:12:50;;;;;;;;;1.00;1.00;;;;;21.10;45.70;101293.09;5120984;27;8815;-78
2021/05/22 07:15:46;;;;;;;;;2.50;2.50;;;;;21.40;47.28;101283.72;5134709;27;8823;-80
2021/05/22 07:18:41;;;;;;;;;2.00;2.00;;;;;21.38;47.38;101279.25;5135389;27;8862;-78
2021/05/22 07:21:37;;;;;;;;;3.25;3.25;;;;;21.22;46.27;101281.53;5135007;27;8839;-78
2021/05/22 07:24:33;;;;;;;;;2.75;2.25;;;;;21.22;46.07;101272.28;5130588;27;8935;-80
2021/05/22 07:27:34;;;;;;;;;3.75;3.75;;;;;21.56;46.96;101282.22;5121387;27;8853;-81
2021/05/22 07:30:30;;;;;;;;;2.60;2.60;;;;;21.19;45.19;101282.31;5134857;27;8866;-78
2021/05/22 07:33:34;;;;;;;;;2.25;2.25;;;;;21.00;45.43;101282.53;5127547;27;9546;-79
2021/05/22 07:36:29;;;;;;;;;5.00;5.00;;;;;21.10;48.54;101284.66;5121325;27;8807;-78
2021/05/22 07:39:25;;;;;;;;;3.00;3.00;;;;;21.04;47.50;101283.38;5133979;27;8861;-78
2021/05/22 07:42:22;;;;;;;;;19.00;19.00;;;;;21.68;45.20;101283.09;5120523;27;8863;-79
2021/05/22 07:45:18;;;;;;;;;6.00;6.00;;;;;21.69;45.01;101279.88;5134252;27;8899;-79
2021/05/22 07:48:14;;;;;;;;;3.50;3.50;;;;;21.73;43.26;101280.72;5134928;27;8870;-79
2021/05/22 07:51:10;;;;;;;;;2.80;2.80;;;;;22.11;42.69;101284.97;5134639;27;8851;-77
2021/05/22 07:54:06;;;;;;;;;2.00;2.00;;;;;21.89;42.42;101280.41;5134572;27;8839;-78
2021/05/22 07:57:07;;;;;;;;;4.25;4.25;;;;;22.17;41.99;101274.94;5134999;27;8804;-80
2021/05/22 08:00:07;;;;;;;;;2.40;2.40;;;;;22.46;41.14;101270.19;5127507;27;8818;-82
2021/05/22 08:03:04;;;;;;;;;5.00;4.60;;;;;22.37;43.71;101269.75;5114022;28;8830;-79
2021/05/22 08:06:00;;;;;;;;;2.20;2.20;;;;;23.00;41.26;101262.69;5114575;28;9577;-80
2021/05/22 08:08:55;;;;;;;;;4.00;4.00;;;;;23.27;41.09;101265.09;5113539;28;8852;-79
2021/05/22 08:11:51;;;;;;;;;2.60;2.60;;;;;23.42;40.25;101266.69;5114330;28;8942;-79
2021/05/22 08:14:48;;;;;;;;;5.00;4.00;;;;;23.38;39.16;101279.16;5113558;28;8845;-78
2021/05/22 08:17:44;;;;;;;;;0.80;0.80;;;;;23.39;39.23;101267.50;5113727;28;8837;-79
2021/05/22 08:20:39;;;;;;;;;5.40;5.40;;;;;23.58;40.70;101277.53;5104324;27;8810;-77
2021/05/22 08:23:35;;;;;;;;;2.60;2.60;;;;;23.29;38.92;101271.13;5114777;28;8917;-79
2021/05/22 08:26:34;;;;;;;;;2.80;2.80;;;;;23.32;38.18;101269.53;5113264;28;8872;-84
2021/05/22 08:29:29;;;;;;;;;2.80;2.80;;;;;22.80;38.66;101269.88;5113914;28;8837;-82
2021/05/22 08:32:28;;;;;;;;;1.20;1.20;;;;;22.65;38.82;101263.41;5092314;28;9658;-80
2021/05/22 08:35:24;;;;;;;;;2.00;2.00;;;;;22.86;38.90;101268.31;5091965;28;8873;-78
2021/05/22 08:38:21;;;;;;;;;1.40;1.40;;;;;22.92;38.11;101268.69;5093828;28;8910;-78
2021/05/22 08:41:17;;;;;;;;;11.20;6.80;;;;;22.73;38.25;101247.31;5092816;28;8929;-77
2021/05/22 08:44:12;;;;;;;;;10.20;5.80;;;;;22.55;36.99;101257.75;5100270;28;8891;-83
2021/05/22 08:47:11;;;;;;;;;1.40;1.40;;;;;22.91;37.02;101244.53;5112285;28;8846;-80
2021/05/22 08:50:10;;;;;;;;;1.40;1.40;;;;;22.72;38.00;101249.31;5114300;28;9611;-79
2021/05/22 08:53:05;;;;;;;;;1.20;1.20;;;;;23.07;37.38;101261.84;5113589;28;8873;-79
2021/05/22 08:56:03;;;;;;;;;1.60;1.60;;;;;23.35;35.50;101234.84;5112976;28;8926;-80
2021/05/22 08:58:59;;;;;;;;;1.20;1.20;;;;;23.33;34.67;101240.09;5112290;28;8834;-79
2021/05/22 09:01:55;;;;;;;;;1.80;1.60;;;;;23.48;34.79;101233.22;5093316;28;8845;-79
2021/05/22 09:05:21;;;;;;;;;3.40;3.40;;;;;23.48;33.98;101245.31;5093150;28;8945;-78
2021/05/22 09:08:16;;;;;;;;;2.00;2.00;;;;;23.91;34.35;101250.03;5093248;28;8856;-79
2021/05/22 09:11:12;;;;;;;;;2.00;2.00;;;;;24.23;34.31;101264.88;5093139;28;8891;-80
2021/05/22 09:14:09;;;;;;;;;1.00;1.00;;;;;24.23;33.28;101266.88;5092466;28;8859;-80
2021/05/22 09:17:10;;;;;;;;;1.00;1.00;;;;;24.10;32.83;101264.50;5091447;28;8857;-77
2021/05/22 09:20:17;;;;;;;;;8.60;7.60;;;;;23.60;33.39;101280.78;5093012;28;8833;-79
2021/05/22 09:23:16;;;;;;;;;1.00;1.00;;;;;24.10;32.78;101270.16;5093079;28;9578;-80
2021/05/22 09:26:14;;;;;;;;;0.40;0.40;;;;;24.38;32.72;101279.75;5092968;28;8842;-79
2021/05/22 09:29:23;;;;;;;;;1.00;1.00;;;;;23.99;32.13;101275.03;5091489;28;9638;-78
2021/05/22 09:32:19;;;;;;;;;0.40;0.40;;;;;24.09;31.77;101287.53;5113204;28;8829;-83
2021/05/22 09:35:17;;;;;;;;;0.00;0.00;;;;;24.50;33.31;101273.63;5112748;28;8860;-79
2021/05/22 09:38:13;;;;;;;;;1.80;1.80;;;;;24.80;31.80;101280.72;5112985;28;8929;-79
2021/05/22 09:41:20;;;;;;;;;1.00;1.00;;;;;25.08;30.76;101276.91;5113057;28;8937;-80
2021/05/22 09:44:21;;;;;;;;;1.60;1.60;;;;;24.91;30.18;101287.09;5114548;28;8821;-82
2021/05/22 09:47:18;;;;;;;;;0.20;0.20;;;;;25.08;30.91;101294.69;5112507;28;8922;-81
2021/05/22 09:50:44;;;;;;;;;0.20;0.20;;;;;25.49;31.32;101291.91;5113826;28;9038;-80
2021/05/22 09:53:42;;;;;;;;;0.60;0.60;;;;;25.67;31.63;101271.88;5113120;28;9574;-80
2021/05/22 09:56:48;;;;;;;;;1.60;1.60;;;;;25.52;30.90;101274.06;5112707;28;8823;-83
2021/05/22 10:00:03;;;;;;;;;0.80;0.80;;;;;24.95;30.34;101274.53;5114080;27;8826;-80
2021/05/22 10:03:01;;;;;;;;;0.60;0.60;;;;;24.45;31.46;101262.75;5113868;28;8818;-83
2021/05/22 10:05:57;;;;;;;;;0.00;0.00;;;;;24.33;30.36;101274.53;5129316;27;8844;-84
2021/05/22 10:09:09;;;;;;;;;0.80;0.80;;;;;24.84;31.83;101270.16;5115683;28;8858;-82
2021/05/22 10:12:09;;;;;;;;;0.80;0.80;;;;;24.92;31.58;101281.03;5130296;27;8865;-80
2021/05/22 10:15:06;;;;;;;;;1.40;1.40;;;;;24.59;31.61;101290.94;5137929;27;8900;-84
2021/05/22 10:18:04;;;;;;;;;0.20;0.20;;;;;24.61;32.51;101282.88;5133493;27;8842;-81
2021/05/22 10:21:03;;;;;;;;;1.20;1.20;;;;;24.64;30.96;101279.19;5130309;27;8799;-79
2021/05/22 10:23:59;;;;;;;;;0.80;0.80;;;;;24.49;30.95;101291.00;5114989;28;8843;-79
2021/05/22 10:26:56;;;;;;;;;3.60;3.60;;;;;24.75;30.96;101283.97;5114379;28;8847;-80
2021/05/22 10:29:55;;;;;;;;;0.80;0.80;;;;;24.79;31.51;101282.75;5116188;28;8874;-79
2021/05/22 10:33:03;;;;;;;;;1.00;1.00;;;;;24.76;31.75;101289.22;5118331;27;8860;-78
2021/05/22 10:35:58;;;;;;;;;4.00;4.00;;;;;24.54;31.85;101290.59;5137484;27;8951;-79
2021/05/22 10:38:54;;;;;;;;;0.60;0.60;;;;;24.40;29.50;101289.44;5139276;27;8820;-82
2021/05/22 10:41:49;;;;;;;;;0.20;0.20;;;;;24.90;29.25;101288.31;5130427;27;8852;-79
2021/05/22 10:44:48;;;;;;;;;0.80;0.80;;;;;24.75;29.28;101289.63;5121348;27;8861;-81
2021/05/22 10:47:43;;;;;;;;;1.60;1.60;;;;;24.57;30.82;101282.06;5116301;28;8869;-83
2021/05/22 10:50:46;;;;;;;;;1.80;1.00;;;;;24.61;32.17;101277.22;5117659;28;8835;-82
2021/05/22 10:53:53;;;;;;;;;0.80;0.80;;;;;25.02;29.73;101265.19;5124234;27;8827;-80
2021/05/22 10:57:07;;;;;;;;;0.80;0.80;;;;;25.03;29.50;101280.16;5141346;27;8859;-78
2021/05/22 11:00:25;;;;;;;;;0.40;0.40;;;;;25.51;29.26;101263.97;5120781;28;8834;-83
2021/05/22 11:03:21;;;;;;;;;0.20;0.20;;;;;25.52;28.51;101259.09;5116642;28;8862;-81
2021/05/22 11:06:39;;;;;;;;;1.00;1.00;;;;;25.62;28.48;101271.56;5116438;27;9665;-84
2021/05/22 11:09:36;;;;;;;;;0.40;0.40;;;;;25.56;28.65;101267.56;5116487;28;8850;-83
2021/05/22 11:12:38;;;;;;;;;0.00;0.00;;;;;25.43;29.15;101272.94;5115597;28;8837;-82
2021/05/22 11:15:40;;;;;;;;;0.80;0.80;;;;;26.03;27.54;101265.84;5114375;28;8918;-81
2021/05/22 11:18:36;;;;;;;;;0.20;0.20;;;;;26.04;28.51;101259.75;5115201;28;8847;-81
2021/05/22 11:21:31;;;;;;;;;1.20;1.20;;;;;25.88;27.25;101253.09;5113675;28;8827;-80
2021/05/22 11:24:27;;;;;;;;;0.00;0.00;;;;;26.17;27.43;101253.53;5135793;27;8963;-81
2021/05/22 11:30:42;;;;;;;;;0.20;0.20;;;;;26.43;28.00;101249.97;5126791;27;8852;-82
2021/05/22 11:33:38;;;;;;;;;1.20;1.20;;;;;27.12;28.33;101250.53;5119821;27;8811;-81
2021/05/22 11:36:33;;;;;;;;;0.80;0.80;;;;;27.01;26.93;101241.38;5116704;27;8949;-80
2021/05/22 11:39:41;;;;;;;;;0.00;0.00;;;;;26.71;29.14;101240.22;5123893;27;8808;-80
2021/05/22 11:42:37;;;;;;;;;0.00;0.00;;;;;27.19;27.11;101249.63;5126077;27;8908;-82
2021/05/22 11:45:32;;;;;;;;;0.80;0.80;;;;;27.27;26.61;101237.69;5122894;27;8869;-81
2021/05/22 11:48:37;;;;;;;;;1.20;1.20;;;;;26.91;28.43;101236.66;5128551;27;8854;-84
2021/05/22 11:51:38;;;;;;;;;0.00;0.00;;;;;27.33;27.15;101233.13;5127768;27;8835;-80
2021/05/22 11:54:33;;;;;;;;;0.00;0.00;;;;;27.77;25.24;101219.75;5122238;27;8864;-84
2021/05/22 11:57:29;;;;;;;;;0.00;0.00;;;;;28.05;25.92;101226.06;5131272;27;8835;-85
2021/05/22 12:00:27;;;;;;;;;0.00;0.00;;;;;27.97;26.03;101228.25;5135705;27;8908;-84
2021/05/22 12:03:25;;;;;;;;;0.00;0.00;;;;;27.92;26.41;101223.09;5121268;27;8841;-85
2021/05/22 12:06:23;;;;;;;;;0.00;0.00;;;;;27.92;24.55;101220.25;5124688;27;8849;-85
2021/05/22 12:09:20;;;;;;;;;0.00;0.00;;;;;27.67;25.65;101209.38;5118510;27;8846;-89
2021/05/22 12:12:15;;;;;;;;;0.00;0.00;;;;;27.36;25.02;101231.44;5125988;27;8830;-85
2021/05/22 12:15:25;;;;;;;;;0.00;0.00;;;;;28.11;24.80;101213.72;5115534;27;8839;-83
2021/05/22 12:18:21;;;;;;;;;0.00;0.00;;;;;27.67;25.80;101217.91;5114088;28;8915;-81
2021/05/22 12:21:26;;;;;;;;;0.00;0.00;;;;;27.25;25.96;101216.66;5125181;27;8844;-83
2021/05/22 12:24:23;;;;;;;;;0.00;0.00;;;;;28.23;25.00;101207.38;5120588;27;8838;-80
2021/05/22 12:27:19;;;;;;;;;0.00;0.00;;;;;27.75;24.83;101204.34;5123474;27;8800;-83
2021/05/22 12:30:16;;;;;;;;;0.00;0.00;;;;;27.74;25.97;101211.28;5127283;27;8831;-83
2021/05/22 12:33:13;;;;;;;;;0.00;0.00;;;;;28.36;26.07;101204.66;5119378;27;8855;-84
2021/05/22 12:36:10;;;;;;;;;1.00;1.00;;;;;28.09;25.72;101199.16;5131098;27;8833;-83
2021/05/22 12:39:13;;;;;;;;;0.00;0.00;;;;;27.54;24.87;101189.31;5129691;27;8805;-83
2021/05/22 12:42:26;;;;;;;;;0.00;0.00;;;;;28.45;24.73;101181.31;5135610;27;9588;-81
2021/05/22 12:45:22;;;;;;;;;0.20;0.20;;;;;28.59;25.92;101180.16;5131868;27;8885;-83
2021/05/22 12:48:25;;;;;;;;;0.00;0.00;;;;;27.69;27.15;101187.03;5133652;27;8821;-86
2021/05/22 12:51:22;;;;;;;;;0.00;0.00;;;;;27.80;25.75;101193.28;5141623;27;8835;-83
2021/05/22 12:54:52;;;;;;;;;0.20;0.20;;;;;27.40;25.52;101198.91;5141082;27;8840;-82
2021/05/22 12:57:48;;;;;;;;;0.00;0.00;;;;;27.26;26.25;101207.69;5114009;27;8877;-85
2021/05/22 13:01:14;;;;;;;;;0.00;0.00;;;;;27.58;27.82;101194.91;5136232;27;8805;-83
2021/05/22 14:01:47;;;;;;;;;0.00;0.00;;;;;25.59;29.67;101097.59;5132319;27;8827;-87
2021/05/22 14:04:43;;;;;;;;;0.80;0.80;;;;;25.56;28.71;101094.81;5125425;27;9540;-88
2021/05/22 14:07:38;;;;;;;;;0.20;0.20;;;;;25.52;29.51;101094.84;5117830;28;8872;-83
2021/05/22 14:10:36;;;;;;;;;0.80;0.80;;;;;25.54;29.42;101092.44;5124165;27;8827;-84
2021/05/22 14:13:32;;;;;;;;;1.00;1.00;;;;;25.01;30.12;101082.50;5108269;27;8871;-84
2021/05/22 14:16:28;;;;;;;;;0.80;0.80;;;;;25.66;30.41;101088.22;5128613;27;8831;-81
2021/05/22 14:19:26;;;;;;;;;0.80;0.80;;;;;25.78;29.26;101088.47;5123007;27;8882;-91
2021/05/22 14:22:25;;;;;;;;;0.00;0.00;;;;;25.56;28.58;101075.81;5132325;27;8826;-87
2021/05/22 14:25:21;;;;;;;;;1.80;1.80;;;;;25.57;29.66;101079.44;5135642;27;9037;-88
2021/05/22 14:28:17;;;;;;;;;0.20;0.20;;;;;25.61;30.31;101072.50;5131105;27;8835;-87
2021/05/22 14:31:13;;;;;;;;;0.00;0.00;;;;;25.32;30.83;101071.28;5123812;27;8902;-86
2021/05/22 14:34:09;;;;;;;;;1.00;1.00;;;;;25.47;30.66;101072.69;5122619;27;8966;-85
2021/05/22 14:37:05;;;;;;;;;0.80;0.80;;;;;25.69;30.36;101065.53;5122614;27;8834;-84
2021/05/22 14:40:06;;;;;;;;;0.80;0.80;;;;;25.47;30.94;101076.31;5141551;27;8847;-84
2021/05/22 14:43:02;;;;;;;;;0.60;0.60;;;;;25.34;30.77;101072.44;5143917;27;8825;-84
2021/05/22 14:45:58;;;;;;;;;4.40;4.20;;;;;25.31;31.52;101061.97;5156622;27;8825;-85
2021/05/22 14:48:54;;;;;;;;;1.20;1.20;;;;;25.10;31.39;101065.84;5141781;27;8813;-85
2021/05/22 14:51:49;;;;;;;;;1.00;1.00;;;;;24.94;31.36;101055.09;5157013;27;8845;-84
2021/05/22 14:54:45;;;;;;;;;0.80;0.80;;;;;24.95;31.54;101053.88;5158348;27;8963;-83
2021/05/22 14:57:43;;;;;;;;;1.60;1.60;;;;;24.79;31.67;101047.19;5158750;27;8925;-87